Time;durP1;ratioP1;P1;durP2;ratioP2;P2;SDS_P1;SDS_P2;PMS_P1;PMS_P2;Temp;Humidity;BMP_temperature;BMP_pressure;BME280_temperature;BME280_humidity;BME280_pressure;Samples;Min_cycle;Max_cycle;Signal;HPM_P1;HPM_P2
2022/05/29 00:01:39;;;;;;;4.40;1.43;;;;;;;-145.69;100.00;72067.06;5074712;28;20203;-78
2022/05/29 00:04:06;;;;;;;4.60;1.97;;;;;;;-145.69;100.00;72069.06;5074503;28;20198;-79
2022/05/29 00:06:38;;;;;;;4.30;1.60;;;;;;;-145.69;100.00;72081.00;5074115;28;20198;-78
2022/05/29 00:09:20;;;;;;;5.83;1.57;;;;;;;-145.69;100.00;72090.94;5074288;28;20203;-79
2022/05/29 00:11:48;;;;;;;1.57;1.37;;;;;;;-145.69;100.00;72084.97;5074162;28;20199;-78
2022/05/29 00:14:17;;;;;;;4.63;1.73;;;;;;;-145.69;100.00;72082.97;5074356;28;20205;-78
2022/05/29 00:16:45;;;;;;;3.23;1.80;;;;;;;-145.69;100.00;72094.94;5073917;28;20210;-78
2022/05/29 00:19:13;;;;;;;5.70;2.00;;;;;;;-145.69;100.00;72112.84;5074056;28;20231;-78
2022/05/29 00:21:44;;;;;;;6.13;1.63;;;;;;;-145.69;100.00;72130.75;5073956;28;20203;-78
2022/05/29 00:24:19;;;;;;;5.37;1.80;;;;;;;-145.69;100.00;72138.72;5074045;28;20206;-78
2022/05/29 00:26:46;;;;;;;4.63;1.70;;;;;;;-145.69;100.00;72138.72;5073799;28;20230;-78
2022/05/29 00:29:15;;;;;;;2.37;1.43;;;;;;;-145.69;100.00;72138.72;5073972;28;20194;-78
2022/05/29 00:31:45;;;;;;;5.85;1.75;;;;;;;-145.69;100.00;72144.69;5070865;28;20442;-78
2022/05/29 00:34:11;;;;;;;5.43;1.80;;;;;;;-145.69;100.00;72138.72;5070506;28;20198;-78
2022/05/29 00:36:42;;;;;;;6.33;2.00;;;;;;;-145.69;100.00;72128.75;5073856;28;20531;-78
2022/05/29 00:39:12;;;;;;;4.40;2.00;;;;;;;-145.69;100.00;72148.66;5072957;28;20310;-78
2022/05/29 00:41:40;;;;;;;3.83;1.63;;;;;;;-145.69;100.00;72140.69;5073795;28;20213;-78
2022/05/29 00:44:14;;;;;;;6.70;2.73;;;;;;;-145.69;100.00;72150.66;5073590;28;20199;-78
2022/05/29 00:46:46;;;;;;;5.93;1.77;;;;;;;-145.69;100.00;72150.66;5073143;28;20193;-78
2022/05/29 00:49:13;;;;;;;4.67;1.93;;;;;;;-145.69;100.00;72154.63;5073718;28;20199;-78
2022/05/29 00:51:44;;;;;;;4.53;2.00;;;;;;;-145.69;100.00;72158.63;5073557;28;20260;-78
2022/05/29 00:54:14;;;;;;;3.47;1.83;;;;;;;-145.69;100.00;72156.63;5073577;28;20203;-78
2022/05/29 00:56:44;;;;;;;6.33;2.07;;;;;;;-145.69;100.00;72172.53;5073448;28;20202;-78
2022/05/29 00:59:14;;;;;;;8.40;2.77;;;;;;;-145.69;100.00;72162.59;5073007;28;20222;-78
2022/05/29 01:01:41;;;;;;;4.83;2.00;;;;;;;-145.69;100.00;72164.59;5073676;28;20195;-78
2022/05/29 01:04:11;;;;;;;5.10;1.70;;;;;;;-145.69;100.00;72160.59;5072796;28;20921;-78
2022/05/29 01:06:52;;;;;;;5.93;2.00;;;;;;;-145.69;100.00;72172.53;5073139;28;20209;-78
2022/05/29 01:09:21;;;;;;;6.87;1.97;;;;;;;-145.69;100.00;72178.53;5072904;28;20207;-78
2022/05/29 01:12:06;;;;;;;2.33;1.70;;;;;;;-145.69;100.00;72194.44;5073174;28;20213;-78
2022/05/29 01:14:51;;;;;;;3.03;1.80;;;;;;;-145.69;100.00;72188.47;5073073;28;20194;-78
2022/05/29 01:17:31;;;;;;;3.80;1.90;;;;;;;-145.69;100.00;72170.56;5073107;28;20234;-78
2022/05/29 01:20:09;;;;;;;7.37;2.00;;;;;;;-145.69;100.00;72172.53;5072294;28;20237;-78
2022/05/29 01:22:58;;;;;;;3.23;2.00;;;;;;;-145.69;100.00;72178.53;5073168;28;20221;-78
2022/05/29 01:26:02;;;;;;;3.13;1.50;;;;;;;-145.69;100.00;72198.41;5072954;28;20226;-78
2022/05/29 01:28:49;;;;;;;3.07;1.70;;;;;;;-145.69;100.00;72202.41;5073192;28;20191;-77
2022/05/29 01:31:30;;;;;;;4.30;1.83;;;;;;;-145.69;100.00;72202.41;5072240;28;20191;-77
2022/05/29 01:34:00;;;;;;;9.97;2.20;;;;;;;-145.69;100.00;72170.56;5072925;28;20289;-77
2022/05/29 01:36:33;;;;;;;7.43;2.10;;;;;;;-145.69;100.00;72172.53;5072901;28;20198;-78
2022/05/29 01:39:01;;;;;;;4.73;2.10;;;;;;;-145.69;100.00;72170.56;5072216;28;20446;-78
2022/05/29 01:41:35;;;;;;;12.93;2.10;;;;;;;-145.69;100.00;72162.59;5073149;28;20214;-78
2022/05/29 01:44:19;;;;;;;5.73;1.87;;;;;;;-145.69;100.00;72154.63;5072477;28;20203;-78
2022/05/29 01:46:51;;;;;;;5.50;1.87;;;;;;;-145.69;100.00;72162.59;5073134;28;20300;-78
2022/05/29 01:49:22;;;;;;;8.37;2.00;;;;;;;-145.69;100.00;72154.63;5073091;28;20324;-78
2022/05/29 01:51:57;;;;;;;4.97;2.30;;;;;;;-145.69;100.00;72158.63;5072698;28;20556;-77
2022/05/29 01:54:32;;;;;;;6.20;2.20;;;;;;;-145.69;100.00;72160.59;5072666;28;20195;-78
2022/05/29 01:57:07;;;;;;;7.07;2.10;;;;;;;-145.69;100.00;72152.66;5072727;28;20229;-77
2022/05/29 01:59:49;;;;;;;5.97;2.00;;;;;;;-145.69;100.00;72158.63;5072739;28;20587;-77
2022/05/29 02:02:23;;;;;;;8.63;1.87;;;;;;;-145.69;100.00;72188.47;5073390;28;20210;-77
2022/05/29 02:04:54;;;;;;;6.33;1.93;;;;;;;-145.69;100.00;72178.53;5073156;28;20297;-77
2022/05/29 02:10:17;;;;;;;9.33;1.93;;;;;;;-145.69;100.00;72168.56;5073056;28;20205;-77
2022/05/29 02:12:49;;;;;;;4.30;1.90;;;;;;;-145.69;100.00;72166.56;5072835;28;20600;-77
2022/05/29 02:15:22;;;;;;;5.73;2.30;;;;;;;-145.69;100.00;72178.53;5072831;28;20291;-77
2022/05/29 02:17:54;;;;;;;4.63;1.90;;;;;;;-145.69;100.00;72192.44;5072953;28;20210;-77
2022/05/29 02:20:31;;;;;;;4.33;1.63;;;;;;;-145.69;100.00;72186.47;5072235;28;20223;-77
2022/05/29 02:23:03;;;;;;;10.73;2.37;;;;;;;-145.69;100.00;72206.38;5072682;28;20584;-78
2022/05/29 02:25:33;;;;;;;4.90;1.77;;;;;;;-145.69;100.00;72206.38;5072688;28;20233;-77
2022/05/29 02:28:05;;;;;;;3.80;1.70;;;;;;;-145.69;100.00;72222.31;5072502;28;20203;-78
2022/05/29 02:30:43;;;;;;;4.03;1.73;;;;;;;-145.69;100.00;72214.34;5072428;28;20206;-77
2022/05/29 02:33:16;;;;;;;3.00;2.00;;;;;;;-145.69;100.00;72222.31;5052854;28;20257;-77
2022/05/29 02:35:50;;;;;;;5.87;1.70;;;;;;;-145.69;100.00;72230.25;5052854;28;20211;-77
2022/05/29 02:38:23;;;;;;;3.30;1.80;;;;;;;-145.69;100.00;72240.22;5052520;28;20672;-77
2022/05/29 02:40:57;;;;;;;4.17;2.13;;;;;;;-145.69;100.00;72242.22;5054831;28;20231;-77
2022/05/29 02:43:33;;;;;;;3.70;2.00;;;;;;;-145.69;100.00;72246.19;5057912;28;20187;-77
2022/05/29 02:46:13;;;;;;;7.43;2.40;;;;;;;-145.69;100.00;72234.25;5072550;28;20201;-77
2022/05/29 02:48:45;;;;;;;4.70;2.30;;;;;;;-145.69;100.00;72226.28;5072272;28;20201;-78
2022/05/29 02:51:20;;;;;;;11.37;2.53;;;;;;;-145.69;100.00;72230.25;5072461;28;20195;-77
2022/05/29 02:53:47;;;;;;;4.07;2.47;;;;;;;-145.69;100.00;72218.31;5072053;28;20668;-77
2022/05/29 02:56:16;;;;;;;4.17;2.60;;;;;;;-145.69;100.00;72206.38;5073059;28;20202;-77
2022/05/29 02:58:46;;;;;;;11.07;2.80;;;;;;;-145.69;100.00;72198.41;5075937;28;20202;-77
2022/05/29 03:01:20;;;;;;;4.10;2.60;;;;;;;-145.69;100.00;72174.53;5075967;28;20234;-77
2022/05/29 03:04:07;;;;;;;6.47;2.37;;;;;;;-145.69;100.00;72174.53;5075736;28;20199;-77
2022/05/29 03:06:46;;;;;;;9.07;2.43;;;;;;;-145.69;100.00;72158.63;5075716;28;20199;-78
2022/05/29 03:09:24;;;;;;;5.90;2.93;;;;;;;-145.69;100.00;72134.72;5055721;28;20589;-77
2022/05/29 03:11:53;;;;;;;8.17;2.40;;;;;;;-145.69;100.00;72126.78;5055615;28;20195;-77
2022/05/29 03:14:33;;;;;;;5.10;2.30;;;;;;;-145.69;100.00;72142.69;5055205;28;20656;-77
2022/05/29 03:17:11;;;;;;;6.23;2.03;;;;;;;-145.69;100.00;72148.66;5055640;28;20195;-78
2022/05/29 03:19:49;;;;;;;4.60;2.50;;;;;;;-145.69;100.00;72160.59;5063805;28;20692;-77
2022/05/29 03:22:23;;;;;;;8.98;2.40;;;;;;;-145.69;100.00;72146.69;5075507;28;20559;-78
2022/05/29 03:24:58;;;;;;;7.67;2.20;;;;;;;-145.69;100.00;72150.66;5075311;28;20195;-77
2022/05/29 03:27:34;;;;;;;18.00;3.00;;;;;;;-145.69;100.00;72150.66;5075386;28;20680;-77
2022/05/29 03:30:06;;;;;;;4.67;2.20;;;;;;;-145.69;100.00;72158.63;5075550;28;20220;-77
2022/05/29 03:32:35;;;;;;;4.10;2.27;;;;;;;-145.69;100.00;72162.59;5075138;28;20194;-77
2022/05/29 03:35:20;;;;;;;5.00;2.20;;;;;;;-145.69;100.00;72168.56;5075136;28;20210;-77
2022/05/29 03:37:47;;;;;;;4.17;2.00;;;;;;;-145.69;100.00;72168.56;5075247;28;20209;-77
2022/05/29 03:40:14;;;;;;;5.33;2.40;;;;;;;-145.69;100.00;72166.56;5075219;28;20238;-77
2022/05/29 03:42:49;;;;;;;7.47;2.53;;;;;;;-145.69;100.00;72166.56;5075066;28;20285;-77
2022/05/29 03:45:16;;;;;;;4.17;2.00;;;;;;;-145.69;100.00;72178.53;5074295;28;20194;-77
2022/05/29 03:47:44;;;;;;;2.83;2.10;;;;;;;-145.69;100.00;72182.50;5074819;28;20653;-77
2022/05/29 03:50:13;;;;;;;7.38;2.83;;;;;;;-145.69;100.00;72174.53;5073848;28;20434;-78
2022/05/29 03:52:40;;;;;;;5.50;2.17;;;;;;;-145.69;100.00;72186.47;5074445;28;20199;-77
2022/05/29 03:55:20;;;;;;;6.43;2.30;;;;;;;-145.69;100.00;72190.47;5074789;28;20206;-77
2022/05/29 03:57:49;;;;;;;5.47;2.10;;;;;;;-145.69;100.00;72186.47;5074662;28;20199;-78
2022/05/29 04:00:20;;;;;;;4.57;1.90;;;;;;;-145.69;100.00;72182.50;5074310;28;20704;-77
2022/05/29 04:02:50;;;;;;;6.37;2.50;;;;;;;-145.69;100.00;72182.50;5054739;28;20669;-77
2022/05/29 04:05:20;;;;;;;5.93;3.10;;;;;;;-145.69;100.00;72170.56;5054988;28;20200;-78
2022/05/29 04:13:33;;;;;;;5.73;2.93;;;;;;;-145.69;100.00;72112.84;5047126;28;20260;-78
2022/05/29 04:16:00;;;;;;;7.63;2.70;;;;;;;-145.69;100.00;72108.84;5054381;28;20561;-77
2022/05/29 04:18:31;;;;;;;3.80;2.20;;;;;;;-145.69;100.00;72122.78;5054092;28;20199;-77
2022/05/29 04:20:57;;;;;;;5.70;2.20;;;;;;;-145.69;100.00;72132.75;5054030;28;20582;-78
2022/05/29 04:23:31;;;;;;;4.87;2.07;;;;;;;-145.69;100.00;72134.72;5062350;28;20213;-77
2022/05/29 04:25:58;;;;;;;10.40;2.27;;;;;;;-145.69;100.00;72134.72;5073880;28;20230;-77
2022/05/29 04:28:28;;;;;;;5.87;2.17;;;;;;;-145.69;100.00;72134.72;5074116;28;20206;-78
2022/05/29 04:30:56;;;;;;;4.17;2.17;;;;;;;-145.69;100.00;72136.72;5074134;28;20572;-78
2022/05/29 04:33:22;;;;;;;4.93;2.20;;;;;;;-145.69;100.00;72132.75;5073926;28;20643;-78
2022/05/29 04:35:52;;;;;;;5.77;2.70;;;;;;;-145.69;100.00;72114.81;5073531;28;20198;-78
2022/05/29 04:38:24;;;;;;;5.50;2.30;;;;;;;-145.69;100.00;72104.88;5071992;28;20199;-77
2022/05/29 04:40:58;;;;;;;6.87;2.77;;;;;;;-145.69;100.00;72102.88;5054744;28;20231;-78
2022/05/29 04:43:25;;;;;;;4.00;2.37;;;;;;;-145.69;100.00;72082.97;5073732;28;20209;-78
2022/05/29 04:45:54;;;;;;;9.90;3.07;;;;;;;-145.69;100.00;72086.97;5073697;28;20199;-77
2022/05/29 04:48:26;;;;;;;5.97;2.37;;;;;;;-145.69;100.00;72063.09;5073533;28;20626;-77
2022/05/29 04:50:58;;;;;;;4.80;2.87;;;;;;;-145.69;100.00;72051.16;5073486;28;20202;-77
2022/05/29 04:53:25;;;;;;;8.63;2.97;;;;;;;-145.69;100.00;72041.19;5069488;28;20282;-77
2022/05/29 04:55:58;;;;;;;6.53;2.33;;;;;;;-145.69;100.00;72039.19;5073674;28;20672;-77
2022/05/29 04:58:28;;;;;;;4.40;2.53;;;;;;;-145.69;100.00;72029.25;5073472;28;20199;-77
2022/05/29 05:00:57;;;;;;;6.80;2.90;;;;;;;-145.69;100.00;72013.31;5073299;28;20226;-78
2022/05/29 05:03:30;;;;;;;10.43;2.73;;;;;;;-145.69;100.00;71989.44;5073021;28;20198;-78
2022/05/29 05:06:00;;;;;;;6.87;2.90;;;;;;;-145.69;100.00;71973.53;5073492;28;20202;-77
2022/05/29 05:08:28;;;;;;;5.70;2.80;;;;;;;-145.69;100.00;71959.59;5073142;28;20203;-78
2022/05/29 05:10:55;;;;;;;9.20;2.90;;;;;;;-145.69;100.00;71943.69;5073211;28;20441;-78
2022/05/29 05:13:24;;;;;;;6.63;2.53;;;;;;;-145.69;100.00;71927.75;5073055;28;20199;-78
2022/05/29 05:15:59;;;;;;;7.10;2.70;;;;;;;-145.69;100.00;71901.88;5073132;28;20195;-78
2022/05/29 05:18:27;;;;;;;9.13;2.93;;;;;;;-145.69;100.00;71887.94;5072737;28;20206;-78
2022/05/29 05:20:54;;;;;;;6.70;2.43;;;;;;;-145.69;100.00;71880.00;5072843;28;20238;-78
2022/05/29 05:23:23;;;;;;;6.80;2.60;;;;;;;-145.69;100.00;71854.13;5073113;28;20225;-77
2022/05/29 05:25:51;;;;;;;7.57;3.20;;;;;;;-145.69;100.00;71842.19;5072753;28;20241;-78
2022/05/29 05:28:18;;;;;;;6.27;2.80;;;;;;;-145.69;100.00;71816.31;5072871;28;20285;-78
2022/05/29 05:30:47;;;;;;;7.10;2.20;;;;;;;-145.69;100.00;71782.47;5072836;28;20203;-78
2022/05/29 05:33:14;;;;;;;5.70;1.97;;;;;;;-145.69;100.00;71752.63;5072970;28;20230;-77
2022/05/29 05:35:40;;;;;;;7.67;1.87;;;;;;;-145.69;100.00;71716.81;5072754;28;20263;-78
2022/05/29 05:38:07;;;;;;;7.23;1.90;;;;;;;-145.69;100.00;71649.16;5072716;28;20199;-78
2022/05/29 05:40:38;;;;;;;4.27;1.93;;;;;;;-145.69;100.00;71555.63;5072378;28;20279;-78
2022/05/29 05:43:08;;;;;;;5.27;1.90;;;;;;;-145.69;100.00;71452.16;5072984;28;20211;-79
2022/05/29 05:45:37;;;;;;;6.63;2.17;;;;;;;-145.69;91.54;71324.78;5072994;28;20199;-78
2022/05/29 05:48:06;;;;;;;5.20;2.63;;;;;;;-145.69;91.59;71290.97;5072809;28;20205;-78
2022/05/29 05:50:32;;;;;;;3.90;1.67;;;;;;;-145.69;80.27;71243.22;5072739;28;20203;-78
2022/05/29 05:52:59;;;;;;;6.05;1.80;;;;;;;-145.69;83.29;71227.28;5072512;28;20199;-78
2022/05/29 05:55:26;;;;;;;4.32;1.35;;;;;;;-145.69;76.83;71149.69;5073214;28;20248;-79
2022/05/29 05:57:54;;;;;;;3.10;1.40;;;;;;;-145.69;74.22;71147.69;5072728;28;20661;-79
2022/05/29 06:00:23;;;;;;;4.53;1.33;;;;;;;-145.69;75.48;71187.50;5072602;28;20227;-79
2022/05/29 06:02:51;;;;;;;3.50;1.67;;;;;;;-145.69;76.88;71139.75;5072840;28;20209;-79
2022/05/29 06:05:19;;;;;;;5.25;1.73;;;;;;;-145.69;71.59;71145.72;5071988;28;20562;-79
2022/05/29 06:07:50;;;;;;;3.33;1.60;;;;;;;-145.69;70.85;71097.97;5072702;28;20203;-79
2022/05/29 06:10:19;;;;;;;5.00;1.30;;;;;;;-145.69;71.70;71052.19;5072613;28;20199;-79
2022/05/29 06:12:46;;;;;;;5.47;1.67;;;;;;;-145.69;67.65;71020.34;5072646;28;20248;-80
2022/05/29 06:15:14;;;;;;;4.93;1.40;;;;;;;-145.69;61.47;70948.72;5072546;28;20538;-79
2022/05/29 06:17:46;;;;;;;2.42;1.20;;;;;;;-145.69;61.63;70940.78;5071663;28;20210;-78
2022/05/29 06:20:13;;;;;;;3.85;1.33;;;;;;;-145.69;67.29;71147.69;5072687;28;20222;-79
2022/05/29 06:22:48;;;;;;;6.40;1.67;;;;;;;-145.69;68.64;71137.75;5072040;28;20796;-78
2022/05/29 06:25:17;;;;;;;3.92;1.33;;;;;;;-145.69;70.74;71207.38;5072207;28;20202;-79
2022/05/29 06:27:45;;;;;;;5.38;1.35;;;;;;;-145.69;73.10;71235.25;5072115;28;20199;-79
2022/05/29 06:30:19;;;;;;;4.82;1.50;;;;;;;-145.69;69.40;71247.19;5073243;28;20202;-84
2022/05/29 06:32:46;;;;;;;8.75;1.67;;;;;;;-145.69;74.97;71281.00;5076353;28;20229;-80
2022/05/29 06:35:14;;;;;;;5.60;1.60;;;;;;;-145.69;70.80;71231.28;5076082;28;20198;-79
2022/05/29 06:37:43;;;;;;;4.63;1.63;;;;;;;-145.69;71.37;71229.28;5076259;28;20212;-79
2022/05/29 06:40:12;;;;;;;5.47;1.25;;;;;;;-145.69;68.07;71171.56;5075663;28;20210;-79
2022/05/29 06:42:39;;;;;;;5.88;1.45;;;;;;;-145.69;69.06;71211.38;5075978;28;20199;-79
2022/05/29 06:45:07;;;;;;;4.68;1.10;;;;;;;-145.69;65.48;71129.78;5075738;28;20295;-79
2022/05/29 06:47:35;;;;;;;5.43;1.50;;;;;;;-145.69;65.36;71092.00;5063110;28;20196;-79
2022/05/29 06:50:02;;;;;;;4.05;1.30;;;;;;;-145.69;63.48;71028.31;5055865;28;20214;-80
2022/05/29 06:52:31;;;;;;;2.17;1.27;;;;;;;-145.69;64.83;71107.91;5060825;28;20191;-79
2022/05/29 06:54:58;;;;;;;4.70;1.58;;;;;;;-145.69;64.32;71129.78;5075911;28;20268;-79
2022/05/29 06:57:37;;;;;;;5.78;1.75;;;;;;;-145.69;67.13;71159.63;5075778;28;20568;-79
2022/05/29 07:08:16;;;;;;;6.20;1.73;;;;;;;-145.69;67.05;71159.63;5075428;28;20607;-78
2022/05/29 07:10:43;;;;;;;4.13;1.38;;;;;;;-145.69;68.22;71133.78;5075578;28;20573;-78
2022/05/29 07:13:11;;;;;;;6.13;1.50;;;;;;;-145.69;68.10;71095.97;5075357;28;20725;-79
2022/05/29 07:15:38;;;;;;;4.53;1.40;;;;;;;-145.69;63.36;71070.09;5075344;28;20199;-79
2022/05/29 07:18:06;;;;;;;3.17;1.73;;;;;;;-145.69;64.22;71088.00;5075219;28;20190;-78
2022/05/29 07:20:36;;;;;;;5.40;1.50;;;;;;;-145.69;66.34;71078.06;5075244;28;20712;-80
2022/05/29 07:23:02;;;;;;;3.95;1.40;;;;;;;-145.69;65.55;71097.97;5075339;28;20229;-79
2022/05/29 07:25:29;;;;;;;4.13;1.33;;;;;;;-145.69;66.59;71095.97;5074999;28;20234;-82
2022/05/29 07:27:57;;;;;;;5.00;1.52;;;;;;;-145.69;67.52;71084.03;5075066;28;20645;-79
2022/05/29 07:30:23;;;;;;;4.68;1.48;;;;;;;-145.69;65.58;71054.19;5074902;28;20198;-79
2022/05/29 07:32:50;;;;;;;3.58;1.80;;;;;;;-145.69;66.75;71097.97;5073923;28;20828;-82
2022/05/29 07:35:18;;;;;;;4.45;1.77;;;;;;;-145.69;68.47;71084.03;5075165;28;20199;-82
2022/05/29 07:37:47;;;;;;;7.95;2.13;;;;;;;-145.69;64.72;71044.22;5075138;28;20198;-79
2022/05/29 07:40:14;;;;;;;5.53;1.30;;;;;;;-145.69;64.85;71056.16;5074633;28;20195;-78
2022/05/29 07:45:24;;;;;;;3.35;1.30;;;;;;;-145.69;63.57;71002.44;5074800;28;20206;-79
2022/05/29 07:47:51;;;;;;;3.95;1.30;;;;;;;-145.69;65.30;70950.72;5075038;28;20248;-79
2022/05/29 07:50:21;;;;;;;5.00;1.80;;;;;;;-145.69;58.92;70861.19;5074906;28;20206;-79
2022/05/29 07:52:50;;;;;;;3.25;1.48;;;;;;;-145.69;62.11;70964.66;5074490;28;20736;-82
2022/05/29 07:55:18;;;;;;;6.93;1.65;;;;;;;-145.69;65.15;71020.34;5074772;28;20214;-81
2022/05/29 07:57:44;;;;;;;5.95;1.88;;;;;;;-145.69;68.79;71076.06;5074786;28;20199;-80
2022/05/29 08:00:15;;;;;;;3.65;1.35;;;;;;;-145.69;70.40;71123.81;5074499;28;20589;-80
2022/05/29 08:02:41;;;;;;;6.38;1.60;;;;;;;-145.69;71.45;71169.59;5074905;28;20226;-85
2022/05/29 08:05:11;;;;;;;11.30;1.90;;;;;;;-145.69;75.17;71187.50;5074505;28;20280;-79
2022/05/29 08:07:40;;;;;;;5.63;1.88;;;;;;;-145.69;72.10;71125.81;5073927;28;20919;-85
2022/05/29 08:10:08;;;;;;;2.92;1.30;;;;;;;-145.69;72.05;71092.00;5074069;28;20199;-79
2022/05/29 08:12:35;;;;;;;3.42;1.75;;;;;;;-145.69;65.80;71018.38;5074534;28;20229;-82
2022/05/29 08:15:01;;;;;;;3.83;1.60;;;;;;;-145.69;67.87;71012.41;5074368;28;20207;-79
2022/05/29 08:17:28;;;;;;;6.00;1.60;;;;;;;-145.69;66.34;70990.50;5074296;28;20680;-85
2022/05/29 08:19:57;;;;;;;3.97;1.60;;;;;;;-145.69;67.97;71054.19;5074373;28;20205;-79
2022/05/29 08:22:24;;;;;;;5.35;1.60;;;;;;;-145.69;72.78;71084.03;5073660;28;20280;-82
2022/05/29 08:30:46;;;;;;;2.83;1.55;;;;;;;-145.69;72.51;71086.03;5074213;28;20251;-81
2022/05/29 08:33:17;;;;;;;3.50;1.30;;;;;;;-145.69;75.35;71127.81;5074054;28;20293;-82
2022/05/29 08:35:50;;;;;;;3.13;1.40;;;;;;;-145.69;71.79;71107.91;5073978;28;20195;-81
2022/05/29 08:38:18;;;;;;;4.30;1.67;;;;;;;-145.69;75.50;71177.53;5073769;28;20568;-81
2022/05/29 08:40:49;;;;;;;4.20;1.60;;;;;;;-145.69;75.20;71223.31;5074148;28;20203;-85
2022/05/29 08:43:24;;;;;;;5.20;1.70;;;;;;;-145.69;78.51;71217.34;5069779;28;20256;-84
2022/05/29 08:45:51;;;;;;;4.33;1.60;;;;;;;-145.69;78.67;71255.16;5069824;28;20592;-83
2022/05/29 08:48:22;;;;;;;5.33;1.70;;;;;;;-145.69;79.84;71239.22;5070148;28;20210;-80
2022/05/29 08:50:57;;;;;;;3.20;1.40;;;;;;;-145.69;78.34;71245.19;5069897;28;20684;-80
2022/05/29 08:53:35;;;;;;;5.47;1.70;;;;;;;-145.69;78.17;71229.28;5068991;28;20195;-81
2022/05/29 08:56:15;;;;;;;6.00;1.70;;;;;;;-145.69;78.02;71167.59;5071299;28;20206;-80
2022/05/29 08:58:58;;;;;;;5.57;1.53;;;;;;;-145.69;75.97;71115.88;5067445;28;20203;-81
2022/05/29 09:01:34;;;;;;;3.30;1.60;;;;;;;-145.69;73.88;71080.06;5070673;28;20242;-80
2022/05/29 09:04:04;;;;;;;5.00;1.70;;;;;;;-145.69;72.63;71092.00;5069527;28;20662;-79
2022/05/29 09:06:34;;;;;;;10.33;1.60;;;;;;;-145.69;69.56;71119.84;5069064;28;20202;-83
2022/05/29 09:09:06;;;;;;;4.87;1.33;;;;;;;-145.69;74.14;71187.50;5069681;28;20209;-80
2022/05/29 09:11:38;;;;;;;4.10;1.60;;;;;;;-145.69;71.61;71187.50;5069979;28;20226;-82
2022/05/29 09:14:21;;;;;;;2.23;1.33;;;;;;;-145.69;73.87;71191.47;5069672;28;20285;-81
2022/05/29 09:16:55;;;;;;;8.30;1.70;;;;;;;-145.69;73.68;71199.44;5069235;28;20565;-84
2022/05/29 09:19:32;;;;;;;5.07;1.60;;;;;;;-145.69;69.17;71127.81;5069421;28;20202;-79
2022/05/29 09:22:03;;;;;;;5.30;1.57;;;;;;;-145.69;66.10;71088.00;5069170;28;20619;-79
2022/05/29 09:24:41;;;;;;;2.85;1.42;;;;;;;-145.69;66.19;71066.13;5069699;28;20210;-81
2022/05/29 09:27:10;;;;;;;7.57;1.40;;;;;;;-145.69;71.85;71115.88;5068132;28;20230;-81
2022/05/29 09:29:37;;;;;;;4.73;1.40;;;;;;;-145.69;71.79;71115.88;5069438;28;20629;-82
2022/05/29 09:32:07;;;;;;;3.93;1.60;;;;;;;-145.69;73.38;71169.59;5068919;28;20190;-80
2022/05/29 09:34:35;;;;;;;8.43;1.40;;;;;;;-145.69;74.80;71201.41;5069480;28;20209;-83
2022/05/29 09:37:09;;;;;;;5.47;1.63;;;;;;;-145.69;77.07;71257.13;5070389;28;20705;-83
2022/05/29 09:39:40;;;;;;;7.43;1.83;;;;;;;-145.69;78.36;71249.19;5069217;28;20553;-85
2022/05/29 09:42:11;;;;;;;8.30;1.83;;;;;;;-145.69;76.90;71237.25;5069732;28;20234;-80
2022/05/29 09:44:38;;;;;;;5.23;1.50;;;;;;;-145.69;75.93;71191.47;5069278;28;20195;-80
2022/05/29 09:50:07;;;;;;;7.13;1.40;;;;;;;-145.69;74.16;71185.50;5073223;28;20206;-84
2022/05/29 09:52:40;;;;;;;5.57;1.80;;;;;;;-145.69;74.55;71227.28;5076000;28;20202;-80
2022/05/29 09:55:22;;;;;;;4.60;1.85;;;;;;;-145.69;74.36;71235.25;5075833;28;20481;-85
2022/05/29 09:57:53;;;;;;;11.00;2.17;;;;;;;-145.69;74.37;71199.44;5073093;28;20194;-82
2022/05/29 10:00:28;;;;;;;6.63;1.80;;;;;;;-145.69;73.30;71171.56;5071058;28;20201;-83
2022/05/29 10:02:55;;;;;;;7.30;2.00;;;;;;;-145.69;72.86;71183.50;5069291;28;20248;-85
2022/05/29 10:05:25;;;;;;;5.43;1.93;;;;;;;-145.69;72.46;71153.66;5070022;28;20206;-82
2022/05/29 10:07:53;;;;;;;5.33;2.00;;;;;;;-145.69;71.95;71129.78;5073183;28;20202;-79
2022/05/29 10:10:32;;;;;;;8.93;2.07;;;;;;;-145.69;78.76;71167.59;5072756;28;20669;-83
2022/05/29 10:13:02;;;;;;;7.83;1.83;;;;;;;-145.69;77.05;71205.41;5073047;28;20197;-84
2022/05/29 10:15:38;;;;;;;5.63;1.90;;;;;;;-145.69;82.67;71298.94;5073737;28;20203;-83
2022/05/29 10:18:12;;;;;;;4.30;2.43;;;;;;;-145.69;79.69;71310.84;5072758;28;20199;-84
2022/05/29 10:20:41;;;;;;;10.13;2.43;;;;;;;-145.69;81.10;71300.91;5073103;28;20765;-80
2022/05/29 10:23:10;;;;;;;4.53;1.83;;;;;;;-145.69;79.16;71267.09;5072240;28;20226;-85
2022/05/29 10:25:40;;;;;;;13.30;3.27;;;;;;;-145.69;75.25;71221.31;5072579;28;21844;-83
2022/05/29 10:28:15;;;;;;;9.43;2.80;;;;;;;-145.69;76.08;71143.72;5073214;28;20225;-81
2022/05/29 10:30:45;;;;;;;5.17;1.60;;;;;;;-145.69;71.79;71107.91;5072760;28;20190;-84
2022/05/29 10:33:19;;;;;;;5.87;1.90;;;;;;;-145.69;70.31;71143.72;5074043;28;20195;-82
2022/05/29 10:35:46;;;;;;;5.77;1.83;;;;;;;-145.69;73.85;71177.53;5072858;28;20665;-83
2022/05/29 10:38:26;;;;;;;10.30;1.73;;;;;;;-145.69;74.04;71183.50;5072910;28;20290;-84
2022/05/29 10:40:55;;;;;;;5.72;1.70;;;;;;;-145.69;75.10;71199.44;5072839;28;20692;-82
2022/05/29 10:43:51;;;;;;;4.93;1.90;;;;;;;-145.69;76.36;71259.13;5071968;28;20218;-82
2022/05/29 10:46:20;;;;;;;3.20;1.10;;;;;;;-145.69;76.38;71271.06;5037595;28;20218;-83
2022/05/29 10:49:19;;;;;;;3.90;1.40;;;;;;;-145.69;77.37;71288.97;5072020;28;20209;-80
2022/05/29 10:52:03;;;;;;;5.90;1.77;;;;;;;-145.69;78.92;71273.06;5065886;28;20710;-80
2022/05/29 10:54:41;;;;;;;8.77;2.03;;;;;;;-145.69;77.45;71304.91;5072634;28;20676;-84
2022/05/29 10:57:25;;;;;;;2.73;1.37;;;;;;;-145.69;77.39;71285.00;5070911;28;20210;-82
2022/05/29 11:00:07;;;;;;;5.80;1.67;;;;;;;-145.69;76.71;71239.22;5073157;28;20223;-80
2022/05/29 11:05:53;;;;;;;2.60;1.20;;;;;;;-145.69;78.80;71209.38;5071762;28;20198;-80
2022/05/29 11:08:36;;;;;;;2.30;1.17;;;;;;;-145.69;77.69;71175.56;5071366;28;20198;-79
2022/05/29 11:11:16;;;;;;;6.03;1.40;;;;;;;-145.69;78.22;71131.78;5071641;28;20657;-81
2022/05/29 11:13:59;;;;;;;5.10;1.53;;;;;;;-145.69;75.56;71159.63;5071199;28;20201;-83
2022/05/29 11:16:40;;;;;;;6.10;1.10;;;;;;;-145.69;74.15;71127.81;5071358;28;20199;-81
2022/05/29 11:19:31;;;;;;;3.38;1.30;;;;;;;-145.69;74.88;71127.81;5072022;28;20187;-81
2022/05/29 11:22:11;;;;;;;6.18;1.40;;;;;;;-145.69;77.05;71046.22;5071039;28;20210;-83
2022/05/29 11:24:54;;;;;;;3.33;1.40;;;;;;;-145.69;69.88;71107.91;5071722;28;20603;-85
2022/05/29 11:27:41;;;;;;;7.80;1.42;;;;;;;-145.69;72.15;71095.97;5071457;28;20222;-81
2022/05/29 11:30:11;;;;;;;4.15;1.60;;;;;;;-145.69;71.40;71113.88;5071336;28;20206;-78
2022/05/29 11:33:03;;;;;;;6.57;1.05;;;;;;;-145.69;69.16;71070.09;5072003;28;20195;-81
2022/05/29 11:35:43;;;;;;;3.25;1.27;;;;;;;-145.69;68.57;71123.81;5070980;28;20595;-81
2022/05/29 11:38:35;;;;;;;2.23;1.13;;;;;;;-145.69;70.83;71123.81;5071343;28;20615;-81
2022/05/29 11:41:09;;;;;;;4.05;1.17;;;;;;;-145.69;70.08;71010.41;5070125;28;20657;-81
2022/05/29 11:43:47;;;;;;;3.00;1.20;;;;;;;-145.69;64.11;70940.78;5070690;28;20257;-81
2022/05/29 11:52:05;;;;;;;4.45;1.30;;;;;;;-145.69;65.19;71044.22;5075029;28;20260;-81
2022/05/29 11:54:40;;;;;;;2.53;0.98;;;;;;;-145.69;64.41;71006.44;5074826;28;20203;-80
2022/05/29 11:57:12;;;;;;;4.63;1.10;;;;;;;-145.69;64.57;70960.66;5074434;28;20676;-82
2022/05/29 11:59:51;;;;;;;2.97;1.10;;;;;;;-145.69;65.66;70984.53;5074799;28;20209;-81
2022/05/29 12:02:29;;;;;;;1.55;1.00;;;;;;;-145.69;59.43;70908.94;5074550;28;20677;-80
2022/05/29 12:05:10;;;;;;;4.50;0.98;;;;;;;-145.69;56.07;70869.16;5074739;28;20202;-83
2022/05/29 12:07:43;;;;;;;1.38;1.13;;;;;;;-145.69;55.87;70912.91;5064245;28;20562;-80
2022/05/29 12:10:16;;;;;;;3.10;1.20;;;;;;;-145.69;56.70;70904.97;5070921;28;20195;-86
2022/05/29 12:12:54;;;;;;;1.77;0.90;;;;;;;-145.69;60.44;70956.69;5070604;28;20198;-82